Thunder radar more information blitzortung!


Radar de pluja more information rain snow radar


Visita la nostra xarxa de llocs de meteo:

Template documentation
and downloads

And another site



No particular awareness of the weather is required.    There are no Weather-warnings

Pagina Historial Weather Underground text

Diari Resum Octubre 19, 2017 Unitats:  Imperial    Mètric   Tant
« Previous Dia
SegĂźent Dia »
Diari Setmana Mensual Anual Personalitzada
  Maxima: Minima: Media:
Temperatura: TemperatureC °F 13.5 °F 14.9 °F
Punt de rosada: DewpointC °F 12.7 °F 14.2 °F
Humitat: Humidity % 92 % 95 %
Wind Speed: WindSpeedKMH mph 0.0 mph 5.4 mph
RĂ fegues de vent: WindSpeedGustKMH mph - -
Vent:- - ENE
Pression baro: PressurehPa in 1007.0 in -
Precipitacions: 52.3 in    
Historical Graphs
 
 
Dades de taula per Octubre 19, 2017
Temps Temperatura Punt de rosada Pression baro Vent Wind Speed RĂ fegues de vent Humitat Rainfall Rate (Hourly)
TemperatureC °F DewpointC °F PressurehPa in Calm     Humidity % HourlyPrecipMM in
00:00 14.9 °F 14.1 °F 1010.0 in Calm   3.2 mph 95 % 0.0 in
00:04 14.6 °F 13.3 °F 1011.7 in ENE 3.7 mph 3.7 mph 92 % 0.0 in
00:09 14.6 °F 13.3 °F 1011.7 in NNE 5.6 mph 5.6 mph 92 % 0.0 in
00:10 14.9 °F 14.1 °F 1010.0 in East 1.6 mph 1.6 mph 95 % 1.0 in
00:14 14.6 °F 13.3 °F 1011.7 in NNE 7.4 mph 7.4 mph 92 % 0.0 in
00:20 14.9 °F 14.1 °F 1010.0 in Calm     95 % 1.0 in
00:30 15.0 °F 14.2 °F 1010.0 in NE 8.0 mph 8.0 mph 95 % 0.0 in
00:40 15.0 °F 14.2 °F 1010.0 in NE 1.6 mph 8.0 mph 95 % 0.0 in
00:50 14.9 °F 14.1 °F 1010.0 in NE 3.2 mph 6.4 mph 95 % 0.0 in
01:00 14.8 °F 14.0 °F 1010.0 in NNE 1.6 mph 3.2 mph 95 % 0.0 in
01:10 14.7 °F 13.9 °F 1010.0 in Calm     95 % 0.0 in
01:20 14.7 °F 13.9 °F 1010.0 in Calm   4.8 mph 95 % 0.0 in
01:30 14.7 °F 13.9 °F 1009.0 in NE 4.8 mph 4.8 mph 95 % 0.0 in
01:40 14.5 °F 13.7 °F 1009.0 in ENE 1.6 mph 4.8 mph 95 % 1.3 in
01:50 14.2 °F 13.2 °F 1010.0 in NE 3.2 mph 4.8 mph 94 % 1.3 in
02:00 14.1 °F 13.2 °F 1010.0 in NE 4.8 mph 4.8 mph 94 % 4.1 in
02:10 13.9 °F 12.9 °F 1010.0 in Calm   3.2 mph 94 % 5.1 in
02:20 13.7 °F 12.8 °F 1010.0 in Calm     94 % 2.0 in
02:30 13.7 °F 12.8 °F 1010.0 in NE 3.2 mph 4.8 mph 94 % 3.3 in
02:40 13.6 °F 12.8 °F 1010.0 in NE 3.2 mph 4.8 mph 95 % 3.3 in
02:50 13.5 °F 12.7 °F 1010.0 in ENE 1.6 mph 4.8 mph 95 % 3.0 in
03:00 13.5 °F 12.7 °F 1009.0 in Calm     95 % 2.0 in
03:10 13.5 °F 12.7 °F 1009.0 in ENE 4.8 mph 4.8 mph 95 % 0.0 in
03:20 13.5 °F 12.7 °F 1010.0 in NE 4.8 mph 6.4 mph 95 % 0.0 in
03:30 13.5 °F 12.7 °F 1010.0 in NNE 1.6 mph 4.8 mph 95 % 0.0 in
03:40 13.6 °F 12.8 °F 1010.0 in Calm   1.6 mph 95 % 1.0 in
03:50 13.6 °F 12.8 °F 1009.0 in Calm   3.2 mph 95 % 1.0 in
04:00 13.6 °F 13.0 °F 1010.7 in Calm   4.8 mph 96 % 1.0 in
04:10 13.8 °F 13.2 °F 1010.7 in SE 4.8 mph 6.4 mph 96 % 4.3 in
04:20 13.8 °F 13.2 °F 1010.7 in Calm   3.2 mph 96 % 5.3 in
04:30 13.8 °F 13.2 °F 1010.7 in ENE 1.6 mph   96 % 2.0 in
04:40 13.8 °F 13.2 °F 1010.7 in Calm     96 % 2.3 in
04:50 13.8 °F 13.2 °F 1011.7 in Calm   1.6 mph 96 % 2.3 in
05:00 13.9 °F 13.3 °F 1011.7 in SW 3.2 mph 3.2 mph 96 % 2.0 in
05:10 13.9 °F 13.3 °F 1011.7 in Calm   3.2 mph 96 % 2.0 in
10:12 14.0 °F 13.4 °F 1011.7 in Calm     96 % 11.7 in
10:13 14.0 °F 13.4 °F 1011.7 in East 5.6 mph   96 % 11.7 in
10:18 13.9 °F 13.3 °F 1011.7 in East 7.4 mph 7.4 mph 96 % 11.7 in
10:23 13.9 °F 13.3 °F 1011.7 in East 7.4 mph   96 % 11.7 in
10:28 14.0 °F 13.4 °F 1011.7 in East 1.9 mph 1.9 mph 96 % 10.7 in
10:33 14.0 °F 13.4 °F 1011.7 in ESE 3.7 mph 3.7 mph 96 % 9.7 in
10:38 13.9 °F 13.3 °F 1011.7 in East 3.2 mph 3.2 mph 96 % 9.1 in
10:43 14.0 °F 13.4 °F 1011.7 in NNE 5.0 mph 5.0 mph 96 % 6.9 in
10:48 14.0 °F 13.4 °F 1011.7 in NNE 5.6 mph 5.6 mph 96 % 5.8 in
10:53 14.1 °F 13.4 °F 1011.7 in NNE 5.6 mph 5.6 mph 96 % 4.8 in
10:58 14.0 °F 13.4 °F 1011.7 in NNE 7.6 mph 7.6 mph 96 % 3.3 in
11:03 14.1 °F 13.4 °F 1011.7 in NNE 5.8 mph 5.8 mph 96 % 1.3 in
11:08 14.1 °F 13.4 °F 1011.7 in NNE 4.2 mph 4.2 mph 96 % 1.3 in
11:13 14.1 °F 13.4 °F 1011.7 in NNE 5.6 mph 5.6 mph 96 % 1.3 in
11:18 14.1 °F 13.4 °F 1011.7 in NE 6.9 mph 6.9 mph 96 % 2.3 in
11:20 14.2 °F 13.6 °F 1011.7 in ENE 7.4 mph 7.4 mph 96 % 2.3 in
11:25 14.2 °F 13.6 °F 1011.7 in NE 3.9 mph 3.9 mph 96 % 2.3 in
11:30 14.2 °F 13.6 °F 1011.7 in Calm     96 % 2.3 in
11:35 14.3 °F 13.7 °F 1011.7 in NNE 4.2 mph 4.2 mph 96 % 2.3 in
11:40 14.3 °F 13.7 °F 1011.7 in ENE 5.8 mph 5.8 mph 96 % 3.0 in
11:45 14.5 °F 13.9 °F 1011.7 in NE 3.9 mph 3.9 mph 96 % 3.0 in
11:50 14.6 °F 13.9 °F 1011.7 in NE 4.2 mph 4.7 mph 96 % 2.0 in
11:55 14.6 °F 13.9 °F 1011.7 in NNE 5.6 mph 5.6 mph 96 % 2.0 in
12:00 14.7 °F 14.1 °F 1011.7 in NNE 5.6 mph 5.6 mph 96 % 2.0 in
12:05 14.7 °F 14.1 °F 1011.7 in NNE 6.9 mph 6.9 mph 96 % 2.0 in
12:10 14.6 °F 13.9 °F 1011.7 in North 9.3 mph 9.3 mph 96 % 2.0 in
12:15 14.6 °F 13.9 °F 1010.7 in NE 13.0 mph 13.0 mph 96 % 2.0 in
12:20 14.4 °F 13.8 °F 1010.7 in ENE 9.3 mph 9.3 mph 96 % 1.0 in
12:25 14.3 °F 13.7 °F 1010.7 in NNE 3.7 mph 4.7 mph 96 % 1.0 in
12:30 14.2 °F 13.4 °F 1010.7 in ENE 5.6 mph 5.6 mph 95 % 1.0 in
12:35 14.2 °F 13.4 °F 1010.7 in North 9.3 mph 9.3 mph 95 % 1.0 in
12:40 14.1 °F 13.3 °F 1010.7 in NE 9.3 mph 9.3 mph 95 % 0.0 in
12:45 14.1 °F 13.3 °F 1010.7 in NNE 9.3 mph 9.3 mph 95 % 0.0 in
12:50 14.2 °F 13.4 °F 1010.7 in NNE 5.6 mph 5.6 mph 95 % 0.0 in
12:55 14.2 °F 13.4 °F 1010.7 in NNE 5.8 mph 5.8 mph 95 % 0.0 in
13:00 14.2 °F 13.4 °F 1010.0 in NNE 5.6 mph 5.6 mph 95 % 0.0 in
13:05 14.2 °F 13.4 °F 1010.0 in NNE 9.3 mph 9.3 mph 95 % 0.0 in
13:10 14.1 °F 13.3 °F 1010.0 in NNE 11.1 mph 11.1 mph 95 % 0.0 in
13:15 14.2 °F 13.4 °F 1010.0 in NNE 5.6 mph 5.6 mph 95 % 1.0 in
13:20 14.2 °F 13.4 °F 1010.0 in NNE 9.3 mph 9.3 mph 95 % 1.0 in
13:25 14.3 °F 13.5 °F 1010.0 in NE 7.4 mph 7.4 mph 95 % 1.0 in
13:30 14.2 °F 13.4 °F 1009.0 in NE 3.9 mph 4.2 mph 95 % 1.0 in
13:35 14.2 °F 13.4 °F 1009.0 in NE 6.1 mph 6.1 mph 95 % 1.0 in
13:40 14.1 °F 13.3 °F 1009.0 in ENE 7.4 mph 7.4 mph 95 % 1.0 in
13:45 14.1 °F 13.3 °F 1010.0 in ENE 5.6 mph 5.6 mph 95 % 1.0 in
13:50 14.1 °F 13.3 °F 1010.0 in NE 3.7 mph 3.7 mph 95 % 1.0 in
13:55 14.1 °F 13.3 °F 1010.0 in NE 12.2 mph 12.2 mph 95 % 1.0 in
14:00 14.2 °F 13.4 °F 1010.0 in North 6.1 mph 6.1 mph 95 % 1.0 in
14:05 14.2 °F 13.4 °F 1010.0 in NE 3.9 mph   95 % 1.0 in
14:10 14.3 °F 13.7 °F 1010.0 in NE 3.7 mph 3.7 mph 96 % 1.0 in
14:15 14.4 °F 13.8 °F 1009.0 in North 3.7 mph   96 % 0.0 in
14:20 14.4 °F 13.8 °F 1009.0 in NNW 3.7 mph 3.7 mph 96 % 0.0 in
14:25 14.5 °F 13.9 °F 1009.0 in ENE 3.7 mph 3.7 mph 96 % 1.0 in
14:30 14.6 °F 13.9 °F 1009.0 in ENE 1.9 mph   96 % 1.0 in
14:35 14.6 °F 13.9 °F 1009.0 in WNW 3.7 mph 3.7 mph 96 % 1.0 in
14:40 14.7 °F 14.1 °F 1009.0 in East 5.6 mph 5.6 mph 96 % 1.0 in
14:45 14.8 °F 14.2 °F 1009.0 in Calm     96 % 1.0 in
14:50 14.9 °F 14.3 °F 1009.0 in NNW 2.6 mph   96 % 1.0 in
14:55 15.0 °F 14.4 °F 1009.0 in Calm     96 % 1.0 in
15:00 15.1 °F 14.4 °F 1008.0 in Calm     96 % 1.0 in
15:05 15.4 °F 14.9 °F 1008.0 in Calm     97 % 1.0 in
15:10 15.6 °F 15.1 °F 1008.0 in Calm     97 % 1.0 in
15:15 15.7 °F 15.2 °F 1009.0 in NNE 4.2 mph   97 % 1.0 in
15:20 15.7 °F 15.2 °F 1009.0 in NNE 3.7 mph 3.7 mph 97 % 2.3 in
15:25 15.6 °F 14.9 °F 1009.0 in NE 7.4 mph 7.4 mph 96 % 1.3 in
15:30 15.4 °F 14.8 °F 1008.0 in NW 3.7 mph   96 % 1.3 in
15:35 15.4 °F 14.8 °F 1008.0 in Calm     96 % 1.3 in
15:40 15.3 °F 14.7 °F 1008.0 in Calm     96 % 1.3 in
15:45 15.5 °F 14.9 °F 1007.0 in Calm     96 % 1.3 in
15:50 15.7 °F 15.1 °F 1007.0 in Calm     96 % 1.3 in
15:51 15.7 °F 15.1 °F 1007.0 in Calm     96 % 1.3 in
15:56 15.8 °F 15.2 °F 1008.0 in Calm     96 % 2.3 in
16:01 15.9 °F 15.3 °F 1008.0 in WNW 1.9 mph 1.9 mph 96 % 2.3 in
16:06 15.9 °F 15.3 °F 1008.0 in SW 2.3 mph 2.3 mph 96 % 2.3 in
16:11 15.9 °F 15.3 °F 1008.0 in ESE 2.6 mph   96 % 3.3 in
16:16 15.7 °F 15.1 °F 1008.0 in ESE 1.9 mph 1.9 mph 96 % 3.3 in
16:21 15.8 °F 15.2 °F 1008.0 in SW 3.7 mph 3.7 mph 96 % 2.0 in
16:26 15.7 °F 15.1 °F 1008.0 in Calm     96 % 2.0 in
16:31 15.6 °F 14.9 °F 1008.0 in ESE 3.7 mph 3.7 mph 96 % 3.0 in
16:36 15.6 °F 14.9 °F 1008.0 in Calm     96 % 3.0 in
16:41 15.6 °F 14.9 °F 1008.0 in Calm     96 % 3.0 in
16:46 15.5 °F 14.9 °F 1008.0 in NNE 2.3 mph   96 % 3.0 in
16:51 15.4 °F 14.8 °F 1008.0 in Calm     96 % 4.1 in
16:56 15.3 °F 14.7 °F 1008.0 in West 5.6 mph 5.6 mph 96 % 4.3 in
17:01 15.3 °F 14.7 °F 1008.0 in NW 2.3 mph   96 % 5.1 in
17:06 15.3 °F 14.7 °F 1008.0 in NNE 3.7 mph 3.7 mph 96 % 5.1 in
17:11 15.3 °F 14.7 °F 1007.0 in NNW 5.6 mph 5.6 mph 96 % 4.1 in
17:16 15.3 °F 14.7 °F 1007.0 in West 1.9 mph   96 % 4.1 in
17:21 15.2 °F 14.6 °F 1007.0 in WNW 3.7 mph 3.7 mph 96 % 5.3 in
17:26 15.3 °F 14.7 °F 1007.0 in NE 3.7 mph 3.7 mph 96 % 6.3 in
17:31 15.3 °F 14.7 °F 1007.0 in ESE 2.6 mph 2.6 mph 96 % 5.3 in
17:36 15.3 °F 14.7 °F 1007.0 in NNW 3.7 mph 3.7 mph 96 % 6.3 in
17:41 15.3 °F 14.7 °F 1007.0 in Calm     96 % 7.4 in
17:46 15.3 °F 14.7 °F 1007.0 in ENE 7.4 mph 7.4 mph 96 % 7.4 in
17:51 15.3 °F 14.7 °F 1007.0 in ENE 9.3 mph 9.3 mph 96 % 8.4 in
17:56 15.3 °F 14.7 °F 1007.0 in NNE 9.3 mph 9.3 mph 96 % 8.4 in
18:01 15.3 °F 14.7 °F 1007.0 in NNE 9.3 mph 9.3 mph 96 % 7.6 in
18:06 15.3 °F 14.7 °F 1007.0 in NNE 7.6 mph 7.6 mph 96 % 8.6 in
18:11 15.2 °F 14.6 °F 1007.0 in NE 13.0 mph 13.0 mph 96 % 8.6 in
18:16 15.2 °F 14.6 °F 1007.0 in NNE 5.6 mph 5.6 mph 96 % 8.6 in
18:21 15.1 °F 14.4 °F 1007.0 in NNE 16.7 mph 16.7 mph 96 % 7.4 in
18:26 15.1 °F 14.4 °F 1007.0 in ENE 9.7 mph 9.7 mph 96 % 6.3 in
18:31 15.0 °F 14.4 °F 1007.0 in NNW 7.9 mph 7.9 mph 96 % 6.3 in
18:36 15.0 °F 14.4 °F 1007.0 in NNE 11.1 mph 11.1 mph 96 % 5.3 in
18:41 15.0 °F 14.4 °F 1007.0 in North 12.6 mph 12.6 mph 96 % 5.3 in
18:46 15.0 °F 14.4 °F 1007.0 in NNE 9.7 mph 9.7 mph 96 % 5.3 in
18:51 15.0 °F 14.4 °F 1007.0 in NE 9.3 mph 9.3 mph 96 % 3.3 in
18:56 15.0 °F 14.4 °F 1007.0 in East 9.3 mph 9.3 mph 96 % 2.0 in
19:01 15.0 °F 14.4 °F 1007.0 in NNE 11.1 mph 11.1 mph 96 % 2.0 in
19:06 15.0 °F 14.4 °F 1007.0 in NNE 11.1 mph 11.1 mph 96 % 1.0 in
19:11 15.0 °F 14.4 °F 1007.0 in NE 9.3 mph 9.3 mph 96 % 1.0 in
19:16 15.1 °F 14.4 °F 1007.0 in NE 14.8 mph 14.8 mph 96 % 1.0 in
19:20 15.4 °F 14.6 °F 1011.7 in Calm     95 % 0.0 in
19:21 15.1 °F 14.4 °F 1007.0 in NNE 22.2 mph 22.2 mph 96 % 1.0 in
19:26 15.1 °F 14.4 °F 1007.0 in NNE 16.7 mph 16.7 mph 96 % 1.0 in
19:30 15.4 °F 14.8 °F 1011.7 in Calm     96 % 0.0 in
19:31 15.1 °F 14.4 °F 1007.0 in NNE 14.8 mph 14.8 mph 96 % 1.0 in
19:36 15.2 °F 14.6 °F 1007.0 in NNW 11.1 mph 11.1 mph 96 % 1.0 in
19:40 15.4 °F 14.8 °F 1011.7 in Calm     96 % 0.0 in
19:41 15.2 °F 14.6 °F 1008.0 in NNE 17.2 mph 17.2 mph 96 % 0.0 in
19:46 15.3 °F 14.7 °F 1008.0 in East 16.7 mph 16.7 mph 96 % 0.0 in
19:50 15.4 °F 14.6 °F 1011.7 in Calm     95 % 0.0 in
19:51 15.3 °F 14.7 °F 1008.0 in NNW 11.1 mph 11.1 mph 96 % 0.0 in
19:56 15.3 °F 14.7 °F 1007.0 in ENE 11.1 mph 11.1 mph 96 % 0.0 in
20:00 15.4 °F 14.6 °F 1011.7 in Calm     95 % 0.0 in
20:01 15.3 °F 14.7 °F 1007.0 in NE 16.7 mph 16.7 mph 96 % 0.0 in
20:06 15.5 °F 14.9 °F 1007.0 in NNE 20.4 mph 20.4 mph 96 % 0.0 in
20:10 15.3 °F 14.5 °F 1011.7 in Calm     95 % 0.0 in
20:11 15.7 °F 14.9 °F 1008.0 in NNE 13.0 mph 13.0 mph 95 % 0.0 in
20:16 15.7 °F 14.9 °F 1008.0 in East 13.0 mph 13.0 mph 95 % 0.0 in
20:20 15.4 °F 14.6 °F 1011.7 in Calm     95 % 0.0 in
20:21 15.8 °F 15.0 °F 1008.0 in NNW 11.4 mph 11.4 mph 95 % 1.0 in
20:26 15.8 °F 15.0 °F 1008.0 in NNE 18.5 mph 18.5 mph 95 % 1.0 in
20:30 15.3 °F 14.5 °F 1012.8 in Calm     95 % 0.0 in
20:31 15.8 °F 15.0 °F 1008.0 in NNE 9.3 mph 9.3 mph 95 % 1.0 in
20:36 15.7 °F 14.9 °F 1008.0 in ENE 14.0 mph 14.0 mph 95 % 1.0 in
20:40 15.2 °F 14.4 °F 1012.8 in Calm     95 % 0.0 in
20:41 15.8 °F 15.0 °F 1009.0 in ENE 11.1 mph 11.1 mph 95 % 1.0 in
20:46 15.8 °F 15.0 °F 1009.0 in ENE 14.8 mph 14.8 mph 95 % 1.0 in
20:50 15.2 °F 14.4 °F 1012.8 in Calm     95 % 0.0 in
20:51 15.8 °F 15.0 °F 1009.0 in ENE 9.5 mph 9.5 mph 95 % 1.0 in
20:56 15.8 °F 15.0 °F 1010.0 in ENE 14.8 mph 14.8 mph 95 % 1.0 in
21:00 15.1 °F 14.3 °F 1012.8 in Calm     95 % 0.0 in
21:01 15.8 °F 15.0 °F 1010.0 in NE 12.6 mph 12.6 mph 95 % 1.0 in
21:06 15.9 °F 15.1 °F 1010.0 in North 10.3 mph 10.3 mph 95 % 1.0 in
21:10 15.1 °F 14.4 °F 1012.8 in Calm     96 % 0.0 in
21:11 15.9 °F 15.1 °F 1010.0 in NNE 13.0 mph 13.0 mph 95 % 1.0 in
21:16 15.9 °F 15.1 °F 1010.0 in NE 11.1 mph 11.1 mph 95 % 1.0 in
21:20 15.1 °F 14.4 °F 1012.8 in Calm     96 % 0.0 in
21:21 15.9 °F 15.1 °F 1010.0 in NNE 9.7 mph 9.7 mph 95 % 0.0 in
21:26 15.9 °F 15.1 °F 1010.0 in NNE 13.0 mph 13.0 mph 95 % 0.0 in
21:30 15.1 °F 14.4 °F 1013.8 in Calm     96 % 0.0 in
21:31 16.0 °F 15.2 °F 1010.0 in NNE 11.1 mph 11.1 mph 95 % 0.0 in
21:36 16.0 °F 15.2 °F 1010.0 in NE 13.7 mph 13.7 mph 95 % 0.0 in
21:40 15.0 °F 14.4 °F 1013.8 in Calm     96 % 0.0 in
21:41 16.0 °F 15.2 °F 1010.0 in NNE 9.3 mph 9.3 mph 95 % 0.0 in
21:46 16.0 °F 15.2 °F 1010.0 in NNE 9.3 mph 9.3 mph 95 % 0.0 in
21:50 15.0 °F 14.4 °F 1012.8 in Calm     96 % 0.0 in
21:51 16.0 °F 15.2 °F 1010.0 in ENE 9.5 mph 9.5 mph 95 % 0.0 in
21:56 15.9 °F 15.1 °F 1010.0 in NNE 9.3 mph 9.3 mph 95 % 0.0 in
22:00 14.9 °F 14.1 °F 1012.8 in Calm     95 % 0.0 in
22:01 15.9 °F 15.1 °F 1010.0 in NNE 11.9 mph 11.9 mph 95 % 0.0 in
22:06 15.8 °F 15.0 °F 1010.0 in NE 7.4 mph 7.4 mph 95 % 0.0 in
22:10 14.8 °F 14.2 °F 1012.8 in Calm     96 % 0.0 in
22:11 15.8 °F 15.0 °F 1010.0 in NNE 7.4 mph 7.4 mph 95 % 0.0 in
22:12 15.8 °F 15.0 °F 1010.0 in NE 4.2 mph 4.2 mph 95 % 0.0 in
22:17 15.8 °F 15.0 °F 1010.0 in ENE 9.3 mph 9.3 mph 95 % 0.0 in
22:20 14.7 °F 13.9 °F 1013.8 in NNE 1.6 mph 3.2 mph 95 % 0.0 in
22:22 15.7 °F 14.9 °F 1010.0 in NNE 9.3 mph 9.3 mph 95 % 0.0 in
22:27 15.7 °F 14.9 °F 1010.0 in North 9.3 mph 9.3 mph 95 % 0.0 in
22:30 14.8 °F 14.2 °F 1013.8 in Calm     96 % 0.0 in
22:32 15.7 °F 14.9 °F 1010.0 in NNE 9.3 mph 9.3 mph 95 % 0.0 in
22:37 15.7 °F 14.9 °F 1010.0 in NNE 9.3 mph 9.3 mph 95 % 0.0 in
22:40 14.8 °F 14.2 °F 1013.8 in Calm     96 % 0.0 in
22:42 15.8 °F 15.0 °F 1010.7 in NNE 7.4 mph 7.4 mph 95 % 0.0 in
22:47 15.8 °F 15.0 °F 1010.7 in ENE 10.0 mph 10.0 mph 95 % 0.0 in
22:50 14.8 °F 14.2 °F 1013.8 in Calm     96 % 0.0 in
22:52 15.8 °F 15.0 °F 1010.7 in NNE 9.3 mph 9.3 mph 95 % 0.0 in
22:57 15.8 °F 15.0 °F 1010.7 in NNE 7.4 mph 7.4 mph 95 % 0.0 in
23:00 14.9 °F 14.3 °F 1013.8 in Calm     96 % 0.0 in
23:02 15.7 °F 14.9 °F 1010.7 in NE 5.6 mph 5.6 mph 95 % 0.0 in
23:07 15.6 °F 14.8 °F 1010.7 in ENE 5.6 mph 5.6 mph 95 % 0.0 in
23:10 14.7 °F 14.1 °F 1013.8 in Calm     96 % 0.0 in
23:12 15.6 °F 14.8 °F 1011.7 in NNE 3.7 mph 3.7 mph 95 % 0.0 in
23:17 15.5 °F 14.7 °F 1011.7 in NNE 1.9 mph 1.9 mph 95 % 0.0 in
23:20 14.6 °F 13.9 °F 1013.8 in WNW 3.2 mph 3.2 mph 96 % 0.0 in
23:22 15.5 °F 14.7 °F 1011.7 in NNE 6.1 mph 6.1 mph 95 % 0.0 in
23:27 15.5 °F 14.7 °F 1010.7 in NNE 7.4 mph 7.4 mph 95 % 0.0 in
23:30 14.6 °F 13.9 °F 1013.8 in Calm     96 % 0.0 in
23:32 15.4 °F 14.6 °F 1010.7 in NE 5.6 mph 5.6 mph 95 % 0.0 in
23:37 15.4 °F 14.6 °F 1010.7 in NNE 3.7 mph 3.7 mph 95 % 0.0 in
23:40 14.6 °F 13.9 °F 1013.8 in Calm     96 % 0.0 in
23:42 15.4 °F 14.6 °F 1010.7 in ENE 5.6 mph   95 % 0.0 in
23:47 15.4 °F 14.6 °F 1010.7 in NE 3.7 mph 3.7 mph 95 % 0.0 in
23:50 14.6 °F 13.9 °F 1013.8 in Calm     96 % 0.0 in
23:52 15.4 °F 14.6 °F 1010.7 in Calm     95 % 0.0 in
23:57 15.4 °F 14.6 °F 1012.8 in Calm     95 % 0.0 in
Meteo Sesrovires
Elogis d' Weather Underground - 1.5 mb

Guio original per  Jim McMurry - jmcmurry@mwt.net Adaptat per a la plantilla per  Wim van der Kuil - Leuven-Template.eu

Trobareu la nostra informacio del temps tambe a:

Weather Underground

AWEKAS